createdAt,value
2023-01-11T00:01:08.199Z,6.36
2023-01-11T00:03:36.778Z,6.37
2023-01-11T00:06:05.141Z,6.39
2023-01-11T00:08:33.151Z,6.40
2023-01-11T00:11:02.467Z,6.41
2023-01-11T00:13:32.030Z,6.40
2023-01-11T00:16:06.433Z,6.39
2023-01-11T00:18:35.866Z,6.37
2023-01-11T00:21:05.820Z,6.35
2023-01-11T00:23:35.297Z,6.31
2023-01-11T00:26:08.858Z,6.31
2023-01-11T00:28:36.850Z,6.31
2023-01-11T00:31:05.400Z,6.32
2023-01-11T00:33:33.616Z,6.35
2023-01-11T00:36:01.665Z,6.38
2023-01-11T00:38:46.976Z,6.39
2023-01-11T00:41:34.929Z,6.38
2023-01-11T00:44:22.883Z,6.38
2023-01-11T00:47:10.434Z,6.36
2023-01-11T00:49:38.651Z,6.37
2023-01-11T00:52:09.405Z,6.37
2023-01-11T00:54:39.406Z,6.36
2023-01-11T00:57:08.927Z,6.33
2023-01-11T00:59:39.658Z,6.32
2023-01-11T01:02:09.785Z,6.31
2023-01-11T01:04:38.842Z,6.30
2023-01-11T01:07:08.399Z,6.33
2023-01-11T01:09:36.370Z,6.34
2023-01-11T01:12:04.639Z,6.35
2023-01-11T01:14:33.892Z,6.36
2023-01-11T01:17:08.010Z,6.37
2023-01-11T01:19:37.966Z,6.37
2023-01-11T01:22:05.919Z,6.38
2023-01-11T01:24:34.287Z,6.37
2023-01-11T01:27:02.133Z,6.38
2023-01-11T01:29:30.121Z,6.38
2023-01-11T01:31:58.070Z,6.39
2023-01-11T01:34:26.380Z,6.38
2023-01-11T01:36:54.293Z,6.38
2023-01-11T01:39:22.336Z,6.38
2023-01-11T01:41:50.337Z,6.38
2023-01-11T01:44:54.658Z,6.38
2023-01-11T01:47:31.285Z,6.38
2023-01-11T01:50:04.801Z,6.38
2023-01-11T01:52:34.849Z,6.35
2023-01-11T01:55:10.544Z,6.35
2023-01-11T01:57:43.016Z,6.33
2023-01-11T02:00:12.469Z,6.33
2023-01-11T02:02:44.102Z,6.33
2023-01-11T02:05:15.160Z,6.32
2023-01-11T02:07:45.053Z,6.32
2023-01-11T02:10:18.779Z,6.31
2023-01-11T02:12:57.380Z,6.32
2023-01-11T02:15:25.936Z,6.32
2023-01-11T02:17:54.165Z,6.32
2023-01-11T02:20:35.232Z,6.32
2023-01-11T02:23:25.308Z,6.30
2023-01-11T02:26:02.719Z,6.29
2023-01-11T02:28:49.059Z,6.29
2023-01-11T02:31:35.433Z,6.30
2023-01-11T02:34:20.731Z,6.32
2023-01-11T02:37:16.422Z,6.33
2023-01-11T02:40:20.625Z,6.31
2023-01-11T02:43:16.962Z,6.29
2023-01-11T02:46:00.915Z,6.31
2023-01-11T02:48:44.046Z,6.32
2023-01-11T02:51:20.458Z,6.32
2023-01-11T02:53:59.008Z,6.29
2023-01-11T02:56:34.183Z,6.23
2023-01-11T02:59:02.890Z,6.20
2023-01-11T03:01:30.918Z,6.22
2023-01-11T03:03:58.987Z,6.24
2023-01-11T03:06:34.979Z,6.26
2023-01-11T03:09:22.971Z,6.27
2023-01-11T03:12:20.892Z,6.29
2023-01-11T03:15:16.938Z,6.32
2023-01-11T03:18:01.507Z,6.33
2023-01-11T03:20:38.815Z,6.32
2023-01-11T03:23:14.861Z,6.33
2023-01-11T03:25:48.927Z,6.34
2023-01-11T03:28:37.847Z,6.35
2023-01-11T03:31:38.834Z,6.36
2023-01-11T03:34:16.584Z,6.36
2023-01-11T03:37:16.958Z,6.34
2023-01-11T03:40:37.892Z,6.32
2023-01-11T03:43:13.607Z,6.33
2023-01-11T03:45:57.413Z,6.33
2023-01-11T03:48:55.903Z,6.36
2023-01-11T03:51:30.151Z,6.35
2023-01-11T03:54:01.282Z,6.33
2023-01-11T03:56:49.494Z,6.30
2023-01-11T03:59:18.156Z,6.24
2023-01-11T04:01:46.304Z,6.17
2023-01-11T04:04:14.347Z,6.11
2023-01-11T04:06:42.279Z,6.11
2023-01-11T04:09:10.282Z,6.13
2023-01-11T04:11:38.295Z,6.19
2023-01-11T04:14:06.257Z,6.23
2023-01-11T04:16:34.196Z,6.26
2023-01-11T04:19:03.164Z,6.30
2023-01-11T04:21:31.235Z,6.35
2023-01-11T04:23:59.219Z,6.40
2023-01-11T04:26:27.123Z,6.42
2023-01-11T04:28:55.145Z,6.39
2023-01-11T04:31:23.182Z,6.36
2023-01-11T04:33:51.235Z,6.34
2023-01-11T04:36:19.256Z,6.32
2023-01-11T04:38:47.341Z,6.32
2023-01-11T04:41:34.351Z,6.30
2023-01-11T04:44:02.215Z,6.31
2023-01-11T04:46:30.031Z,6.32
2023-01-11T04:48:58.055Z,6.30
2023-01-11T04:51:26.068Z,6.31
2023-01-11T04:53:54.233Z,6.32
2023-01-11T04:56:22.209Z,6.31
2023-01-11T04:58:50.227Z,6.29
2023-01-11T05:01:19.310Z,6.24
2023-01-11T05:03:47.627Z,6.16
2023-01-11T05:06:17.285Z,6.08
2023-01-11T05:08:46.118Z,6.02
2023-01-11T05:11:14.924Z,5.99
2023-01-11T05:13:43.360Z,6.00
2023-01-11T05:16:12.577Z,6.01
2023-01-11T05:18:52.008Z,6.01
2023-01-11T05:21:22.643Z,6.03
2023-01-11T05:23:51.033Z,6.08
2023-01-11T05:26:23.302Z,6.13
2023-01-11T05:28:52.552Z,6.17
2023-01-11T05:31:20.642Z,6.22
2023-01-11T05:33:48.602Z,6.24
2023-01-11T05:36:20.874Z,6.25
2023-01-11T05:38:51.432Z,6.22
2023-01-11T05:41:22.171Z,6.15
2023-01-11T05:44:10.353Z,6.08
2023-01-11T05:46:40.124Z,6.03
2023-01-11T05:49:09.149Z,5.99
2023-01-11T05:51:40.977Z,5.97
2023-01-11T05:54:14.882Z,5.95
2023-01-11T05:56:43.112Z,5.92
2023-01-11T05:59:13.333Z,5.87
2023-01-11T06:01:41.415Z,5.80
2023-01-11T06:04:09.547Z,5.75
2023-01-11T06:06:37.597Z,5.70
2023-01-11T06:09:06.035Z,5.68
2023-01-11T06:11:35.539Z,5.66
2023-01-11T06:14:07.114Z,5.58
2023-01-11T06:16:35.222Z,5.57
2023-01-11T06:19:04.098Z,5.47
2023-01-11T06:21:32.101Z,5.41
2023-01-11T06:24:01.244Z,5.33
2023-01-11T06:26:29.688Z,5.24
2023-01-11T06:28:57.801Z,5.16
2023-01-11T06:31:25.929Z,5.13
2023-01-11T06:33:53.958Z,5.06
2023-01-11T06:36:21.910Z,5.01
2023-01-11T06:38:50.029Z,4.93
2023-01-11T06:41:17.979Z,4.93
2023-01-11T06:43:46.878Z,4.86
2023-01-11T06:46:16.256Z,4.85
2023-01-11T06:48:45.268Z,4.77
2023-01-11T06:51:15.135Z,4.72
2023-01-11T06:53:44.641Z,4.68
2023-01-11T06:56:19.078Z,4.66
2023-01-11T06:58:47.837Z,4.67
2023-01-11T07:01:18.211Z,4.67
2023-01-11T07:03:46.648Z,4.65
2023-01-11T07:06:14.998Z,4.64
2023-01-11T07:08:43.072Z,4.69
2023-01-11T07:11:11.356Z,4.75
2023-01-11T07:13:39.639Z,4.79
2023-01-11T07:16:07.943Z,4.87
2023-01-11T07:18:37.478Z,4.91
2023-01-11T07:21:05.882Z,4.91
2023-01-11T07:23:33.928Z,4.92
2023-01-11T07:26:02.099Z,4.95
2023-01-11T07:28:31.196Z,5.00
2023-01-11T07:31:00.083Z,5.05
2023-01-11T07:33:28.571Z,5.08
2023-01-11T07:35:58.372Z,5.08
2023-01-11T07:38:29.344Z,5.02
2023-01-11T07:40:57.468Z,5.03
2023-01-11T07:43:25.534Z,5.00
2023-01-11T07:45:53.857Z,4.92
2023-01-11T07:48:26.503Z,4.99
2023-01-11T07:50:55.609Z,4.98
2023-01-11T07:53:26.435Z,4.99
2023-01-11T07:55:56.255Z,5.02
2023-01-11T07:58:24.639Z,5.06
2023-01-11T08:00:52.828Z,5.08
2023-01-11T08:03:21.441Z,5.05
2023-01-11T08:05:51.526Z,4.96
2023-01-11T08:08:20.403Z,4.87
2023-01-11T08:11:08.797Z,4.84
2023-01-11T08:13:55.285Z,4.84
2023-01-11T08:16:23.599Z,4.88
2023-01-11T08:18:52.951Z,4.94
2023-01-11T08:21:22.084Z,4.95
2023-01-11T08:23:50.077Z,4.97
2023-01-11T08:26:18.286Z,5.00
2023-01-11T08:28:46.837Z,5.07
2023-01-11T08:31:15.133Z,5.16
2023-01-11T08:33:43.357Z,5.23
2023-01-11T08:36:12.825Z,5.28
2023-01-11T08:38:40.976Z,5.27
2023-01-11T08:41:11.884Z,5.25
2023-01-11T08:43:40.518Z,5.18
2023-01-11T08:46:10.005Z,5.09
2023-01-11T08:51:42.329Z,4.86
2023-01-11T08:54:13.001Z,4.89
2023-01-11T08:56:41.003Z,4.88
2023-01-11T08:59:10.788Z,4.86
2023-01-11T09:01:39.195Z,4.89
2023-01-11T09:04:19.342Z,4.89
2023-01-11T09:06:52.528Z,4.96
2023-01-11T09:09:20.624Z,5.03
2023-01-11T09:11:54.610Z,5.08
2023-01-11T09:14:24.679Z,5.11
2023-01-11T09:16:54.418Z,5.13
2023-01-11T09:19:22.900Z,5.16
2023-01-11T09:21:52.132Z,5.24
2023-01-11T09:24:21.118Z,5.37
2023-01-11T09:26:49.426Z,5.47
2023-01-11T09:29:18.389Z,5.58
2023-01-11T09:31:46.541Z,5.58
2023-01-11T09:34:14.777Z,5.69
2023-01-11T09:36:44.395Z,6.02
2023-01-11T09:39:15.762Z,6.42
2023-01-11T09:42:05.770Z,6.89
2023-01-11T09:44:42.130Z,7.69
2023-01-11T09:47:32.425Z,8.43
2023-01-11T09:50:13.280Z,9.13
2023-01-11T09:52:46.070Z,9.54
2023-01-11T09:55:20.214Z,10.06
2023-01-11T09:58:02.503Z,10.46
2023-01-11T10:00:50.891Z,10.55
2023-01-11T10:03:28.247Z,10.37
2023-01-11T10:06:15.052Z,10.21
2023-01-11T10:18:39.850Z,11.66
2023-01-11T10:19:18.511Z,12.21
2023-01-11T10:21:55.391Z,12.47
2023-01-11T10:24:26.276Z,12.60
2023-01-11T10:27:02.249Z,13.03
2023-01-11T10:30:07.398Z,13.52
2023-01-11T10:32:47.649Z,14.00
2023-01-11T10:35:45.955Z,14.63
2023-01-11T10:38:42.872Z,15.33
2023-01-11T10:41:27.234Z,15.78
2023-01-11T10:44:24.582Z,15.97
2023-01-11T10:46:54.502Z,16.30
2023-01-11T10:49:47.919Z,16.75
2023-01-11T10:52:33.946Z,17.07
2023-01-11T10:55:24.964Z,17.12
2023-01-11T10:58:12.634Z,16.88
2023-01-11T11:00:53.883Z,16.75
2023-01-11T11:03:43.080Z,16.64
2023-01-11T11:06:28.369Z,16.65
2023-01-11T11:09:02.376Z,16.91
2023-01-11T11:11:36.170Z,17.13
2023-01-11T11:14:13.099Z,17.07
2023-01-11T11:16:44.200Z,16.86
2023-01-11T11:19:19.183Z,16.81
2023-01-11T11:21:49.755Z,16.71
2023-01-11T11:24:27.633Z,16.83
2023-01-11T11:27:03.706Z,17.03
2023-01-11T11:29:32.150Z,17.38
2023-01-11T11:32:01.563Z,17.76
2023-01-11T11:34:31.222Z,18.11
2023-01-11T11:37:00.666Z,18.34
2023-01-11T11:39:30.334Z,18.48
2023-01-11T11:42:07.380Z,18.31
2023-01-11T11:44:35.701Z,18.01
2023-01-11T11:47:15.616Z,17.72
2023-01-11T11:49:44.390Z,17.28
2023-01-11T11:52:17.887Z,17.00
2023-01-11T11:54:53.494Z,16.61
2023-01-11T11:57:28.210Z,16.43
2023-01-11T12:00:09.169Z,16.23
2023-01-11T12:02:48.978Z,15.82
2023-01-11T12:05:20.652Z,15.62
2023-01-11T12:07:55.579Z,15.54
2023-01-11T12:10:30.409Z,15.34
2023-01-11T12:13:04.336Z,15.40
2023-01-11T12:15:37.125Z,15.71
2023-01-11T12:18:25.598Z,15.76
2023-01-11T12:20:56.320Z,15.40
2023-01-11T12:23:31.704Z,14.74
2023-01-11T12:26:18.872Z,14.36
2023-01-11T12:28:59.483Z,14.33
2023-01-11T12:31:40.706Z,14.35
2023-01-11T12:34:15.397Z,14.34
2023-01-11T12:36:49.762Z,14.30
2023-01-11T12:39:56.020Z,14.27
2023-01-11T12:42:57.505Z,14.16
2023-01-11T12:46:11.070Z,13.92
2023-01-11T12:49:13.453Z,13.40
2023-01-11T12:52:10.132Z,12.96
2023-01-11T12:55:31.713Z,12.65
2023-01-11T12:58:14.410Z,12.23
2023-01-11T13:00:59.338Z,11.98
2023-01-11T13:04:14.544Z,11.65
2023-01-11T13:07:36.265Z,11.38
2023-01-11T13:11:01.385Z,11.03
2023-01-11T13:14:30.813Z,10.62
2023-01-11T13:17:17.273Z,10.41
2023-01-11T13:20:02.232Z,10.18
2023-01-11T13:22:37.126Z,9.98
2023-01-11T13:25:40.892Z,9.81
2023-01-11T13:28:36.158Z,9.66
2023-01-11T13:31:07.593Z,9.46
2023-01-11T13:33:40.720Z,9.52
2023-01-11T13:36:33.584Z,9.50
2023-01-11T13:39:21.012Z,9.35
2023-01-11T13:41:56.643Z,9.20
2023-01-11T13:44:37.108Z,9.17
2023-01-11T13:47:08.415Z,9.19
2023-01-11T13:50:02.777Z,9.18
2023-01-11T13:53:10.159Z,9.06
2023-01-11T13:55:53.381Z,8.97
2023-01-11T13:58:30.315Z,8.91
2023-01-11T14:01:17.575Z,8.80
2023-01-11T14:04:00.124Z,8.68
2023-01-11T14:06:37.528Z,8.54
2023-01-11T14:09:24.128Z,8.38
2023-01-11T14:12:01.176Z,8.21
2023-01-11T14:14:54.306Z,8.13
2023-01-11T14:17:43.030Z,8.05
2023-01-11T14:20:35.628Z,7.97
2023-01-11T14:23:14.165Z,7.88
2023-01-11T14:26:05.743Z,7.83
2023-01-11T14:29:24.309Z,7.77
2023-01-11T14:32:21.348Z,7.71
2023-01-11T14:35:17.177Z,7.69
2023-01-11T14:38:29.713Z,7.71
2023-01-11T14:41:06.825Z,7.76
2023-01-11T14:43:56.739Z,7.74
2023-01-11T14:46:37.096Z,7.68
2023-01-11T14:49:10.800Z,7.59
2023-01-11T14:51:54.423Z,7.49
2023-01-11T14:54:53.271Z,7.37
2023-01-11T14:57:41.021Z,7.23
2023-01-11T15:00:27.454Z,7.08
2023-01-11T15:03:01.552Z,7.00
2023-01-11T15:05:30.011Z,6.98
2023-01-11T15:08:28.555Z,6.93
2023-01-11T15:11:41.995Z,6.97
2023-01-11T15:14:28.840Z,6.95
2023-01-11T15:17:20.046Z,6.89
2023-01-11T15:19:51.461Z,6.74
2023-01-11T15:22:30.761Z,6.65
2023-01-11T15:25:20.028Z,6.53
2023-01-11T15:27:48.613Z,6.42
2023-01-11T15:30:31.857Z,6.38
2023-01-11T15:33:18.871Z,6.37
2023-01-11T15:35:56.239Z,6.33
2023-01-11T15:38:28.563Z,6.25
2023-01-11T15:41:18.324Z,6.17
2023-01-11T15:44:01.012Z,6.07
2023-01-11T15:47:06.448Z,6.00
2023-01-11T15:49:34.384Z,5.89
2023-01-11T15:52:13.246Z,5.80
2023-01-11T15:55:06.224Z,5.74
2023-01-11T15:58:29.901Z,5.67
2023-01-11T16:01:28.697Z,5.62
2023-01-11T16:04:15.895Z,5.60
2023-01-11T16:06:43.928Z,5.62
2023-01-11T16:09:42.168Z,5.62
2023-01-11T16:12:22.289Z,5.58
2023-01-11T16:15:09.411Z,5.56
2023-01-11T16:17:41.882Z,5.55
2023-01-11T16:20:19.923Z,5.54
2023-01-11T16:22:53.140Z,5.55
2023-01-11T16:25:25.480Z,5.60
2023-01-11T16:27:55.783Z,5.57
2023-01-11T16:30:25.635Z,5.53
2023-01-11T16:32:54.017Z,5.51
2023-01-11T16:35:25.255Z,5.47
2023-01-11T16:37:58.642Z,5.42
2023-01-11T16:40:32.494Z,5.44
2023-01-11T16:43:22.035Z,5.46
2023-01-11T16:45:54.320Z,5.46
2023-01-11T16:48:24.882Z,5.42
2023-01-11T16:51:02.429Z,5.37
2023-01-11T16:53:33.810Z,5.38
2023-01-11T16:56:16.231Z,5.41
2023-01-11T16:59:02.217Z,5.45
2023-01-11T17:01:50.023Z,5.45
2023-01-11T17:04:31.642Z,5.41
2023-01-11T17:07:20.813Z,5.37
2023-01-11T17:09:49.517Z,5.33
2023-01-11T17:12:26.359Z,5.33
2023-01-11T17:15:13.739Z,5.36
2023-01-11T17:17:41.862Z,5.35
2023-01-11T17:20:21.939Z,5.35
2023-01-11T17:22:53.946Z,5.40
2023-01-11T17:25:41.042Z,5.46
2023-01-11T17:28:19.558Z,5.56
2023-01-11T17:30:50.632Z,5.63
2023-01-11T17:33:27.873Z,5.68
2023-01-11T17:35:56.525Z,5.75
2023-01-11T17:38:26.736Z,5.80
2023-01-11T17:40:56.827Z,5.85
2023-01-11T17:43:46.054Z,5.91
2023-01-11T17:46:22.043Z,5.98
2023-01-11T17:48:56.129Z,6.04
2023-01-11T17:51:33.551Z,6.09
2023-01-11T17:54:01.640Z,6.13
2023-01-11T17:56:32.768Z,6.14
2023-01-11T17:59:18.804Z,6.13
2023-01-11T18:01:49.518Z,6.14
2023-01-11T18:04:20.710Z,6.14
2023-01-11T18:06:52.921Z,6.15
2023-01-11T18:09:30.559Z,6.15
2023-01-11T18:12:23.061Z,6.11
2023-01-11T18:14:53.679Z,6.04
2023-01-11T18:17:36.852Z,6.01
2023-01-11T18:20:29.441Z,6.03
2023-01-11T18:23:15.267Z,6.03
2023-01-11T18:25:46.142Z,6.00
2023-01-11T18:28:22.057Z,5.96
2023-01-11T18:30:54.309Z,5.96
2023-01-11T18:33:25.826Z,5.96
2023-01-11T18:35:55.191Z,5.96
2023-01-11T18:38:30.174Z,5.95
2023-01-11T18:41:20.609Z,5.96
2023-01-11T18:43:48.791Z,5.95
2023-01-11T18:46:16.835Z,5.90
2023-01-11T18:48:45.101Z,5.80
2023-01-11T18:51:35.357Z,5.70
2023-01-11T18:54:03.544Z,5.64
2023-01-11T18:56:31.486Z,5.62
2023-01-11T18:58:59.356Z,5.60
2023-01-11T19:01:33.124Z,5.58
2023-01-11T19:04:01.544Z,5.54
2023-01-11T19:06:29.365Z,5.47
2023-01-11T19:08:57.476Z,5.43
2023-01-11T19:11:27.196Z,5.39
2023-01-11T19:13:55.430Z,5.39
2023-01-11T19:16:23.903Z,5.42
2023-01-11T19:18:55.497Z,5.43
2023-01-11T19:21:23.555Z,5.43
2023-01-11T19:23:51.789Z,5.46
2023-01-11T19:26:19.763Z,5.49
2023-01-11T19:28:47.746Z,5.54
2023-01-11T19:31:15.726Z,5.55
2023-01-11T19:33:43.769Z,5.57
2023-01-11T19:36:11.693Z,5.58
2023-01-11T19:38:39.911Z,5.60
2023-01-11T19:41:17.287Z,5.66
2023-01-11T19:43:45.509Z,5.73
2023-01-11T19:46:22.444Z,5.76
2023-01-11T19:48:59.585Z,5.78
2023-01-11T19:51:27.514Z,5.78
2023-01-11T19:54:01.698Z,5.78
2023-01-11T19:56:29.606Z,5.77
2023-01-11T19:58:57.576Z,5.78
2023-01-11T20:01:26.331Z,5.82
2023-01-11T20:03:54.388Z,5.89
2023-01-11T20:06:22.362Z,5.93
2023-01-11T20:08:51.331Z,6.02
2023-01-11T20:11:19.815Z,6.03
2023-01-11T20:13:50.960Z,6.03
2023-01-11T20:16:24.193Z,6.07
2023-01-11T20:18:57.574Z,6.13
2023-01-11T20:21:29.014Z,6.20
2023-01-11T20:24:01.861Z,6.25
2023-01-11T20:26:31.572Z,6.28
2023-01-11T20:29:00.844Z,6.30
2023-01-11T20:31:31.754Z,6.33
2023-01-11T20:34:01.507Z,6.34
2023-01-11T20:36:29.837Z,6.37
2023-01-11T20:39:03.750Z,6.40
2023-01-11T20:41:49.457Z,6.44
2023-01-11T20:44:20.442Z,6.49
2023-01-11T20:46:48.623Z,6.49
2023-01-11T20:49:17.874Z,6.47
2023-01-11T20:51:46.882Z,6.44
2023-01-11T20:54:16.191Z,6.45
2023-01-11T20:56:47.025Z,6.43
2023-01-11T20:59:17.520Z,6.40
2023-01-11T21:01:47.574Z,6.27
2023-01-11T21:04:17.320Z,6.33
2023-01-11T21:06:48.516Z,6.31
2023-01-11T21:09:18.088Z,6.31
2023-01-11T21:11:53.162Z,6.32
2023-01-11T21:14:24.196Z,6.33
2023-01-11T21:16:55.249Z,6.36
2023-01-11T21:19:23.514Z,6.38
2023-01-11T21:21:51.650Z,6.39
2023-01-11T21:24:19.795Z,6.42
2023-01-11T21:26:48.492Z,6.41
2023-01-11T21:29:16.513Z,6.38
2023-01-11T21:31:45.532Z,6.33
2023-01-11T21:34:14.405Z,6.30
2023-01-11T21:36:43.368Z,6.25
2023-01-11T21:39:14.307Z,6.21
2023-01-11T21:41:55.556Z,6.15
2023-01-11T21:44:30.716Z,6.10
2023-01-11T21:47:03.764Z,6.07
2023-01-11T21:49:32.772Z,6.04
2023-01-11T21:52:01.087Z,6.02
2023-01-11T21:54:29.209Z,5.99
2023-01-11T21:56:57.385Z,5.95
2023-01-11T21:59:25.881Z,5.95
2023-01-11T22:01:53.850Z,5.97
2023-01-11T22:04:22.943Z,6.01
2023-01-11T22:06:54.361Z,6.07
2023-01-11T22:09:24.336Z,6.12
2023-01-11T22:11:52.327Z,6.16
2023-01-11T22:14:20.430Z,6.22
2023-01-11T22:16:48.379Z,6.24
2023-01-11T22:19:16.660Z,6.26
2023-01-11T22:21:44.711Z,6.29
2023-01-11T22:24:13.284Z,6.31
2023-01-11T22:26:42.433Z,6.32
2023-01-11T22:29:15.058Z,6.32
2023-01-11T22:31:45.521Z,6.31
2023-01-11T22:34:15.368Z,6.27
2023-01-11T22:36:44.589Z,6.31
2023-01-11T22:39:14.894Z,6.30
2023-01-11T22:41:45.665Z,6.30
2023-01-11T22:44:14.627Z,6.32
2023-01-11T22:46:43.993Z,6.31
2023-01-11T22:49:12.053Z,6.30
2023-01-11T22:51:41.686Z,6.25
2023-01-11T22:54:10.856Z,6.17
2023-01-11T22:56:39.417Z,6.15
2023-01-11T22:59:07.439Z,6.16
2023-01-11T23:01:41.078Z,6.15
2023-01-11T23:04:13.027Z,6.10
2023-01-11T23:06:42.553Z,6.00
2023-01-11T23:09:15.961Z,5.97
2023-01-11T23:12:04.342Z,5.92
2023-01-11T23:14:33.557Z,5.89
2023-01-11T23:17:07.356Z,5.82
2023-01-11T23:19:40.819Z,5.80
2023-01-11T23:22:10.437Z,5.80
2023-01-11T23:24:39.053Z,5.80
2023-01-11T23:27:07.226Z,5.78
2023-01-11T23:29:35.728Z,5.76
2023-01-11T23:32:03.965Z,5.76
2023-01-11T23:34:32.289Z,5.78
2023-01-11T23:37:00.594Z,5.78
2023-01-11T23:39:30.250Z,5.77
2023-01-11T23:42:19.127Z,5.75
2023-01-11T23:44:47.302Z,5.72
2023-01-11T23:47:21.651Z,5.69
2023-01-11T23:49:52.233Z,5.65
2023-01-11T23:52:26.179Z,5.65
2023-01-11T23:54:55.181Z,5.63
2023-01-11T23:57:25.203Z,5.63
2023-01-11T23:59:53.402Z,5.62
